createdAt,value
2017-08-04T00:00:33.780Z,84.56
2017-08-04T00:01:14.351Z,84.76
2017-08-04T00:01:54.940Z,84.86
2017-08-04T00:02:38.496Z,84.86
2017-08-04T00:03:19.080Z,85.05
2017-08-04T00:03:59.649Z,84.86
2017-08-04T00:04:40.246Z,84.86
2017-08-04T00:05:20.813Z,84.56
2017-08-04T00:06:01.434Z,85.34
2017-08-04T00:06:42.019Z,85.05
2017-08-04T00:07:22.608Z,85.53
2017-08-04T00:08:03.192Z,85.24
2017-08-04T00:08:43.784Z,85.53
2017-08-04T00:09:24.363Z,85.34
2017-08-04T00:10:04.920Z,84.95
2017-08-04T00:10:45.509Z,85.34
2017-08-04T00:11:26.117Z,84.86
2017-08-04T00:12:06.734Z,85.05
2017-08-04T00:12:47.297Z,85.43
2017-08-04T00:13:27.883Z,84.86
2017-08-04T00:14:08.487Z,84.95
2017-08-04T00:14:49.048Z,84.86
2017-08-04T00:15:29.646Z,84.66
2017-08-04T00:16:10.247Z,84.86
2017-08-04T00:16:50.873Z,85.05
2017-08-04T00:17:31.506Z,84.66
2017-08-04T00:18:12.064Z,85.14
2017-08-04T00:18:52.654Z,84.66
2017-08-04T00:19:33.260Z,84.66
2017-08-04T00:20:13.856Z,84.76
2017-08-04T00:20:54.435Z,84.56
2017-08-04T00:21:35.031Z,84.66
2017-08-04T00:22:15.618Z,84.66
2017-08-04T00:22:56.185Z,84.66
2017-08-04T00:23:36.780Z,84.66
2017-08-04T00:24:17.356Z,84.95
2017-08-04T00:24:57.917Z,85.05
2017-08-04T00:25:38.500Z,84.95
2017-08-04T00:26:19.098Z,85.14
2017-08-04T00:26:59.698Z,85.14
2017-08-04T00:27:40.319Z,85.14
2017-08-04T00:28:20.909Z,85.34
2017-08-04T00:29:01.495Z,85.24
2017-08-04T00:29:42.078Z,84.76
2017-08-04T00:30:22.680Z,85.14
2017-08-04T00:31:03.268Z,84.76
2017-08-04T00:31:43.842Z,85.34
2017-08-04T00:32:24.457Z,84.95
2017-08-04T00:33:05.037Z,84.72
2017-08-04T00:33:45.599Z,85.05
2017-08-04T00:34:26.205Z,85.05
2017-08-04T00:35:06.787Z,85.43
2017-08-04T00:35:47.386Z,85.14
2017-08-04T00:36:27.964Z,85.53
2017-08-04T00:37:08.535Z,85.24
2017-08-04T00:37:49.129Z,85.34
2017-08-04T00:38:29.712Z,85.53
2017-08-04T00:39:10.329Z,85.43
2017-08-04T00:39:50.890Z,85.34
2017-08-04T00:40:31.462Z,85.24
2017-08-04T00:41:12.036Z,85.34
2017-08-04T00:41:52.643Z,85.82
2017-08-04T00:42:33.218Z,85.24
2017-08-04T00:43:13.802Z,85.14
2017-08-04T00:43:54.390Z,85.05
2017-08-04T00:44:34.963Z,84.86
2017-08-04T00:45:15.554Z,84.76
2017-08-04T00:45:56.145Z,84.56
2017-08-04T00:46:36.737Z,84.28
2017-08-04T00:47:17.362Z,84.47
2017-08-04T00:47:57.942Z,84.47
2017-08-04T00:48:38.518Z,84.28
2017-08-04T00:49:19.093Z,84.47
2017-08-04T00:49:59.678Z,84.47
2017-08-04T00:50:40.258Z,84.28
2017-08-04T00:51:20.849Z,84.28
2017-08-04T00:52:01.468Z,84.28
2017-08-04T00:52:42.045Z,84.09
2017-08-04T00:53:22.656Z,84.38
2017-08-04T00:54:03.220Z,84.47
2017-08-04T00:54:43.795Z,84.28
2017-08-04T00:55:24.371Z,84.28
2017-08-04T00:56:04.966Z,84.56
2017-08-04T00:56:45.585Z,84.09
2017-08-04T00:57:26.230Z,84.38
2017-08-04T00:58:06.862Z,84.66
2017-08-04T00:58:47.463Z,84.76
2017-08-04T00:59:28.061Z,84.66
2017-08-04T01:00:08.642Z,84.76
2017-08-04T01:00:49.231Z,84.66
2017-08-04T01:01:29.848Z,84.47
2017-08-04T01:02:10.483Z,84.56
2017-08-04T01:02:51.050Z,84.95
2017-08-04T01:03:31.651Z,84.76
2017-08-04T01:04:12.235Z,84.95
2017-08-04T01:04:52.801Z,84.18
2017-08-04T01:05:33.380Z,84.56
2017-08-04T01:06:13.966Z,84.66
2017-08-04T01:06:54.529Z,84.28
2017-08-04T01:07:35.160Z,84.28
2017-08-04T01:08:15.765Z,84.56
2017-08-04T01:08:56.320Z,84.66
2017-08-04T01:09:36.880Z,84.38
2017-08-04T01:10:17.454Z,84.66
2017-08-04T01:10:58.027Z,84.66
2017-08-04T01:11:38.623Z,84.28
2017-08-04T01:12:19.194Z,83.89
2017-08-04T01:12:59.824Z,83.7
2017-08-04T01:13:40.414Z,83.51
2017-08-04T01:14:21.000Z,83.89
2017-08-04T01:15:01.588Z,83.51
2017-08-04T01:15:42.166Z,83.89
2017-08-04T01:16:22.746Z,83.99
2017-08-04T01:17:03.327Z,84.09
2017-08-04T01:17:43.927Z,83.61
2017-08-04T01:18:24.550Z,84.18
2017-08-04T01:19:05.126Z,84.47
2017-08-04T01:19:45.696Z,83.8
2017-08-04T01:20:26.270Z,83.7
2017-08-04T01:21:06.850Z,83.89
2017-08-04T01:21:47.446Z,84.09
2017-08-04T01:22:28.052Z,83.51
2017-08-04T01:23:08.626Z,83.61
2017-08-04T01:23:49.183Z,83.41
2017-08-04T01:24:29.749Z,83.8
2017-08-04T01:25:10.330Z,83.41
2017-08-04T01:25:50.884Z,83.89
2017-08-04T01:26:31.487Z,83.22
2017-08-04T01:27:12.046Z,83.61
2017-08-04T01:27:52.611Z,83.61
2017-08-04T01:28:33.191Z,84.09
2017-08-04T01:29:13.769Z,83.41
2017-08-04T01:29:54.348Z,83.61
2017-08-04T01:30:34.939Z,83.8
2017-08-04T01:31:15.489Z,83.7
2017-08-04T01:31:56.103Z,83.7
2017-08-04T01:32:36.692Z,83.89
2017-08-04T01:33:17.279Z,83.41
2017-08-04T01:33:57.868Z,83.61
2017-08-04T01:34:38.439Z,83.8
2017-08-04T01:35:19.023Z,83.7
2017-08-04T01:35:59.591Z,83.99
2017-08-04T01:36:40.153Z,83.61
2017-08-04T01:37:20.717Z,83.61
2017-08-04T01:38:01.286Z,83.8
2017-08-04T01:38:41.917Z,83.41
2017-08-04T01:39:22.500Z,83.51
2017-08-04T01:40:03.098Z,83.8
2017-08-04T01:40:43.673Z,84.47
2017-08-04T01:41:24.253Z,83.41
2017-08-04T01:42:04.840Z,83.8
2017-08-04T01:42:45.422Z,84.09
2017-08-04T01:43:25.989Z,84.09
2017-08-04T01:44:06.569Z,83.51
2017-08-04T01:44:47.173Z,83.22
2017-08-04T01:45:27.755Z,83.41
2017-08-04T01:46:08.321Z,83.61
2017-08-04T01:46:48.911Z,83.99
2017-08-04T01:47:29.500Z,83.51
2017-08-04T01:48:10.094Z,83.99
2017-08-04T01:48:50.655Z,83.8
2017-08-04T01:49:31.217Z,84.28
2017-08-04T01:50:11.797Z,84.09
2017-08-04T01:50:52.393Z,83.8
2017-08-04T01:51:33.003Z,83.7
2017-08-04T01:52:13.576Z,83.8
2017-08-04T01:52:54.190Z,83.41
2017-08-04T01:53:34.763Z,83.31
2017-08-04T01:54:15.347Z,83.61
2017-08-04T01:54:55.914Z,83.56
2017-08-04T01:55:36.485Z,83.51
2017-08-04T01:56:17.072Z,83.51
2017-08-04T01:56:57.638Z,83.61
2017-08-04T01:57:38.210Z,83.51
2017-08-04T01:58:18.794Z,83.61
2017-08-04T01:58:59.395Z,83.51
2017-08-04T01:59:40.013Z,83.99
2017-08-04T02:00:20.586Z,83.51
2017-08-04T02:01:01.187Z,83.41
2017-08-04T02:01:41.760Z,83.22
2017-08-04T02:02:22.340Z,83.22
2017-08-04T02:03:02.939Z,83.31
2017-08-04T02:03:43.508Z,83.22
2017-08-04T02:04:24.087Z,83.22
2017-08-04T02:05:04.666Z,83.12
2017-08-04T02:05:45.246Z,83.22
2017-08-04T02:06:25.843Z,83.22
2017-08-04T02:07:06.406Z,83.51
2017-08-04T02:07:46.976Z,83.31
2017-08-04T02:08:27.559Z,83.51
2017-08-04T02:09:08.133Z,83.31
2017-08-04T02:09:48.725Z,82.64
2017-08-04T02:10:29.283Z,82.64
2017-08-04T02:11:09.849Z,82.93
2017-08-04T02:11:50.453Z,82.74
2017-08-04T02:12:31.044Z,83.51
2017-08-04T02:13:11.631Z,82.64
2017-08-04T02:13:52.235Z,82.83
2017-08-04T02:14:32.806Z,82.64
2017-08-04T02:15:13.385Z,83.03
2017-08-04T02:15:53.968Z,82.74
2017-08-04T02:16:34.544Z,82.83
2017-08-04T02:17:15.113Z,82.7
2017-08-04T02:17:55.709Z,82.79
2017-08-04T02:18:36.293Z,82.5
2017-08-04T02:19:16.880Z,83.41
2017-08-04T02:19:57.473Z,83.22
2017-08-04T02:20:38.051Z,83.31
2017-08-04T02:21:18.627Z,83.31
2017-08-04T02:21:59.190Z,83.37
2017-08-04T02:22:39.766Z,83.12
2017-08-04T02:23:20.343Z,83.51
2017-08-04T02:24:00.945Z,83.12
2017-08-04T02:24:41.541Z,82.64
2017-08-04T02:25:22.198Z,83.18
2017-08-04T02:26:02.763Z,83.31
2017-08-04T02:26:43.361Z,82.54
2017-08-04T02:27:23.962Z,82.83
2017-08-04T02:28:04.544Z,83.03
2017-08-04T02:28:45.127Z,82.45
2017-08-04T02:29:25.717Z,82.64
2017-08-04T02:30:06.311Z,82.54
2017-08-04T02:30:46.881Z,82.64
2017-08-04T02:31:27.469Z,82.83
2017-08-04T02:32:08.062Z,82.83
2017-08-04T02:32:48.640Z,82.06
2017-08-04T02:33:29.213Z,82.06
2017-08-04T02:34:09.826Z,82.64
2017-08-04T02:34:50.390Z,82.83
2017-08-04T02:35:30.957Z,82.83
2017-08-04T02:36:11.555Z,82.64
2017-08-04T02:36:52.156Z,82.26
2017-08-04T02:37:32.749Z,82.16
2017-08-04T02:38:13.346Z,82.35
2017-08-04T02:38:53.933Z,82.26
2017-08-04T02:39:34.517Z,82.26
2017-08-04T02:40:15.090Z,82.26
2017-08-04T02:40:55.691Z,82.26
2017-08-04T02:41:36.266Z,82.16
2017-08-04T02:42:16.900Z,82.26
2017-08-04T02:42:57.471Z,82.35
2017-08-04T02:43:38.051Z,82.06
2017-08-04T02:44:18.644Z,82.26
2017-08-04T02:44:59.267Z,82.06
2017-08-04T02:45:39.868Z,81.87
2017-08-04T02:46:20.485Z,82.16
2017-08-04T02:47:01.075Z,82.16
2017-08-04T02:47:41.675Z,81.87
2017-08-04T02:48:22.268Z,81.96
2017-08-04T02:49:02.909Z,81.87
2017-08-04T02:49:43.495Z,82.06
2017-08-04T02:50:24.078Z,81.87
2017-08-04T02:51:04.689Z,81.58
2017-08-04T02:51:45.310Z,82.26
2017-08-04T02:52:25.896Z,81.87
2017-08-04T02:53:06.522Z,81.58
2017-08-04T02:53:47.098Z,81.58
2017-08-04T02:54:27.695Z,81.68
2017-08-04T02:55:08.277Z,81.39
2017-08-04T02:55:48.922Z,81.77
2017-08-04T02:56:29.495Z,81.58
2017-08-04T02:57:10.091Z,81.77
2017-08-04T02:57:50.678Z,82.06
2017-08-04T02:58:31.334Z,82.26
2017-08-04T02:59:11.938Z,81.39
2017-08-04T02:59:52.532Z,82.16
2017-08-04T03:00:33.173Z,81.96
2017-08-04T03:01:13.716Z,82.06
2017-08-04T03:01:54.338Z,81.77
2017-08-04T03:02:34.941Z,82.16
2017-08-04T03:03:15.557Z,81.77
2017-08-04T03:03:56.152Z,81.96
2017-08-04T03:04:36.727Z,81.39
2017-08-04T03:05:17.333Z,81.48
2017-08-04T03:05:57.931Z,81.29
2017-08-04T03:06:38.516Z,81.87
2017-08-04T03:07:19.110Z,81.87
2017-08-04T03:07:59.677Z,81.87
2017-08-04T03:08:40.269Z,81.87
2017-08-04T03:09:20.851Z,81.58
2017-08-04T03:10:01.429Z,82.16
2017-08-04T03:10:42.019Z,81.77
2017-08-04T03:11:22.607Z,81.73
2017-08-04T03:12:03.213Z,81.68
2017-08-04T03:12:43.810Z,81.54
2017-08-04T03:13:24.426Z,81.58
2017-08-04T03:14:05.005Z,82.16
2017-08-04T03:14:45.589Z,81.93
2017-08-04T03:15:26.173Z,82.21
2017-08-04T03:16:06.741Z,82.31
2017-08-04T03:16:47.305Z,82.26
2017-08-04T03:17:27.911Z,82.02
2017-08-04T03:18:08.541Z,81.93
2017-08-04T03:18:49.120Z,81.83
2017-08-04T03:19:29.704Z,82.12
2017-08-04T03:20:10.305Z,82.02
2017-08-04T03:20:50.876Z,82.21
2017-08-04T03:21:31.441Z,82.31
2017-08-04T03:22:12.006Z,82.31
2017-08-04T03:22:52.643Z,82.21
2017-08-04T03:23:33.233Z,82.31
2017-08-04T03:24:13.846Z,82.41
2017-08-04T03:24:54.420Z,82.79
2017-08-04T03:25:35.047Z,82.06
2017-08-04T03:26:15.671Z,82.89
2017-08-04T03:26:56.315Z,82.83
2017-08-04T03:27:36.945Z,82.35
2017-08-04T03:28:17.519Z,82.35
2017-08-04T03:28:58.174Z,82.21
2017-08-04T03:29:38.787Z,81.93
2017-08-04T03:30:19.361Z,81.93
2017-08-04T03:30:59.932Z,82.21
2017-08-04T03:31:40.513Z,82.02
2017-08-04T03:32:21.103Z,82.6
2017-08-04T03:33:01.717Z,82.7
2017-08-04T03:33:42.300Z,82.02
2017-08-04T03:34:22.891Z,82.12
2017-08-04T03:35:03.508Z,81.83
2017-08-04T03:35:44.087Z,82.6
2017-08-04T03:36:24.687Z,82.83
2017-08-04T03:37:05.244Z,81.96
2017-08-04T03:37:45.824Z,81.93
2017-08-04T03:38:26.394Z,82.12
2017-08-04T03:39:07.008Z,81.83
2017-08-04T03:39:47.637Z,81.83
2017-08-04T03:40:28.190Z,82.12
2017-08-04T03:41:08.772Z,81.83
2017-08-04T03:41:49.434Z,82.26
2017-08-04T03:42:30.005Z,82.12
2017-08-04T03:43:10.582Z,82.12
2017-08-04T03:43:51.156Z,82.26
2017-08-04T03:44:31.740Z,82.06
2017-08-04T03:45:12.321Z,82.16
2017-08-04T03:45:52.893Z,82.16
2017-08-04T03:46:33.490Z,81.87
2017-08-04T03:47:14.092Z,81.87
2017-08-04T03:47:54.712Z,82.06
2017-08-04T03:48:35.301Z,82.16
2017-08-04T03:49:15.871Z,82.16
2017-08-04T03:49:56.461Z,81.87
2017-08-04T03:50:37.031Z,81.77
2017-08-04T03:51:17.621Z,82.16
2017-08-04T03:51:58.207Z,81.77
2017-08-04T03:52:38.771Z,81.77
2017-08-04T03:53:19.352Z,81.48
2017-08-04T03:53:59.927Z,81.58
2017-08-04T03:54:40.525Z,81.96
2017-08-04T03:55:21.105Z,82.06
2017-08-04T03:56:01.681Z,81.58
2017-08-04T03:56:42.277Z,81.68
2017-08-04T03:57:22.869Z,81.77
2017-08-04T03:58:03.446Z,81.39
2017-08-04T03:58:44.063Z,81.68
2017-08-04T03:59:24.653Z,81.29
2017-08-04T04:00:05.227Z,81.01
2017-08-04T04:00:45.814Z,81.2
2017-08-04T04:01:26.382Z,81.1
2017-08-04T04:02:06.947Z,81.1
2017-08-04T04:02:47.520Z,81.1
2017-08-04T04:03:28.118Z,80.33
2017-08-04T04:04:08.727Z,80.23
2017-08-04T04:04:49.333Z,80.14
2017-08-04T04:05:29.906Z,80.71
2017-08-04T04:06:10.480Z,80.81
2017-08-04T04:06:51.098Z,80.14
2017-08-04T04:07:31.690Z,80.14
2017-08-04T04:08:12.280Z,80.52
2017-08-04T04:08:52.865Z,80.23
2017-08-04T04:09:33.447Z,80.23
2017-08-04T04:10:14.045Z,80.14
2017-08-04T04:10:54.613Z,80.33
2017-08-04T04:11:35.213Z,80.43
2017-08-04T04:12:15.825Z,80.23
2017-08-04T04:12:56.415Z,79.94
2017-08-04T04:13:37.005Z,80.14
2017-08-04T04:14:17.832Z,79.75
2017-08-04T04:14:58.460Z,80.23
2017-08-04T04:15:39.020Z,79.94
2017-08-04T04:16:19.616Z,80.04
2017-08-04T04:17:00.206Z,79.75
2017-08-04T04:17:40.835Z,80.04
2017-08-04T04:18:21.408Z,79.94
2017-08-04T04:19:02.035Z,80.04
2017-08-04T04:19:42.632Z,80.23
2017-08-04T04:20:23.209Z,79.36
2017-08-04T04:21:03.833Z,79.27
2017-08-04T04:21:44.416Z,79.36
2017-08-04T04:22:24.992Z,79.89
2017-08-04T04:23:05.572Z,79.75
2017-08-04T04:23:46.153Z,79.5
2017-08-04T04:24:26.759Z,79.6
2017-08-04T04:25:07.345Z,79.5
2017-08-04T04:25:47.924Z,79.31
2017-08-04T04:26:28.508Z,79.21
2017-08-04T04:27:09.134Z,78.92
2017-08-04T04:27:49.721Z,79.02
2017-08-04T04:28:30.295Z,78.73
2017-08-04T04:29:10.876Z,78.83
2017-08-04T04:29:51.480Z,78.92
2017-08-04T04:30:32.080Z,78.73
2017-08-04T04:31:12.643Z,78.44
2017-08-04T04:31:53.227Z,78.25
2017-08-04T04:32:33.802Z,78.25
2017-08-04T04:33:14.376Z,78.44
2017-08-04T04:33:54.970Z,79.21
2017-08-04T04:34:35.533Z,78.92
2017-08-04T04:35:16.103Z,78.63
2017-08-04T04:35:56.665Z,78.54
2017-08-04T04:36:37.271Z,78.92
2017-08-04T04:37:17.855Z,79.02
2017-08-04T04:37:58.436Z,78.73
2017-08-04T04:38:39.012Z,78.73
2017-08-04T04:39:19.579Z,78.73
2017-08-04T04:40:00.151Z,79.02
2017-08-04T04:40:40.716Z,78.92
2017-08-04T04:41:21.292Z,79.02
2017-08-04T04:42:01.865Z,78.92
2017-08-04T04:42:42.432Z,78.15
2017-08-04T04:43:23.041Z,78.06
2017-08-04T04:44:03.644Z,78.25
2017-08-04T04:44:44.236Z,78.15
2017-08-04T04:45:24.797Z,78.06
2017-08-04T04:46:05.359Z,77.86
2017-08-04T04:46:45.954Z,78.34
2017-08-04T04:47:26.532Z,78.34
2017-08-04T04:48:07.099Z,78.15
2017-08-04T04:48:47.679Z,78.15
2017-08-04T04:49:28.298Z,78.34
2017-08-04T04:50:08.885Z,78.06
2017-08-04T04:50:49.474Z,77.67
2017-08-04T04:51:30.053Z,77.96
2017-08-04T04:52:10.673Z,78.25
2017-08-04T04:52:51.241Z,78.25
2017-08-04T04:53:31.811Z,77.67
2017-08-04T04:54:12.404Z,78.15
2017-08-04T04:54:52.990Z,77.86
2017-08-04T04:55:33.573Z,77.76
2017-08-04T04:56:14.167Z,77.86
2017-08-04T04:56:54.765Z,78.06
2017-08-04T04:57:35.374Z,77.48
2017-08-04T04:58:15.932Z,77.67
2017-08-04T04:58:56.546Z,77.28
2017-08-04T04:59:37.138Z,77.61
2017-08-04T05:00:17.711Z,76.93
2017-08-04T05:00:58.283Z,77.33
2017-08-04T05:01:38.855Z,77.13
2017-08-04T05:02:19.454Z,77.13
2017-08-04T05:03:00.026Z,76.84
2017-08-04T05:03:40.609Z,76.65
2017-08-04T05:04:21.218Z,76.36
2017-08-04T05:05:01.789Z,76.84
2017-08-04T05:05:42.369Z,76.9
2017-08-04T05:06:22.960Z,76.75
2017-08-04T05:07:03.526Z,77.13
2017-08-04T05:07:44.107Z,76.84
2017-08-04T05:08:24.732Z,77
2017-08-04T05:09:05.319Z,76.65
2017-08-04T05:09:45.882Z,76.23
2017-08-04T05:10:26.462Z,76.17
2017-08-04T05:11:07.070Z,76.93
2017-08-04T05:11:47.657Z,76.42
2017-08-04T05:12:28.241Z,76.9
2017-08-04T05:13:08.830Z,76.51
2017-08-04T05:13:49.486Z,76.32
2017-08-04T05:14:30.187Z,76.9
2017-08-04T05:15:10.776Z,75.88
2017-08-04T05:15:51.353Z,76.26
2017-08-04T05:16:31.954Z,76.17
2017-08-04T05:17:12.589Z,75.78
2017-08-04T05:17:53.214Z,75.78
2017-08-04T05:18:33.797Z,75.2
2017-08-04T05:19:14.379Z,75.88
2017-08-04T05:19:54.949Z,75.59
2017-08-04T05:20:35.868Z,75.88
2017-08-04T05:21:16.442Z,75.68
2017-08-04T05:21:57.042Z,75.78
2017-08-04T05:22:37.621Z,75.4
2017-08-04T05:23:18.194Z,74.72
2017-08-04T05:23:58.814Z,74.62
2017-08-04T05:24:39.413Z,74.62
2017-08-04T05:25:20.002Z,74.82
2017-08-04T05:26:00.583Z,74.82
2017-08-04T05:26:41.479Z,73.95
2017-08-04T05:27:22.052Z,73.85
2017-08-04T05:28:02.633Z,74.05
2017-08-04T05:28:43.216Z,73.27
2017-08-04T05:29:23.775Z,73.08
2017-08-04T05:30:04.356Z,73.27
2017-08-04T05:30:44.934Z,73.02
2017-08-04T05:31:25.512Z,72.99
2017-08-04T05:32:06.087Z,73.5
2017-08-04T05:32:46.667Z,73.5
2017-08-04T05:33:27.285Z,72.92
2017-08-04T05:34:07.890Z,72.73
2017-08-04T05:34:48.554Z,73.31
2017-08-04T05:35:29.147Z,72.54
2017-08-04T05:36:09.921Z,72.06
2017-08-04T05:36:50.621Z,72.63
2017-08-04T05:37:31.198Z,72.15
2017-08-04T05:38:11.771Z,72.25
2017-08-04T05:38:52.341Z,71.86
2017-08-04T05:39:33.022Z,71.77
2017-08-04T05:40:13.612Z,71.67
2017-08-04T05:40:54.938Z,70.51
2017-08-04T05:41:35.903Z,70.32
2017-08-04T05:42:16.592Z,70.13
2017-08-04T05:42:57.240Z,70.32
2017-08-04T05:43:37.819Z,70.22
2017-08-04T05:44:18.402Z,69.64
2017-08-04T05:44:58.980Z,70.03
2017-08-04T05:45:39.555Z,69.84
2017-08-04T05:46:20.163Z,70.51
2017-08-04T05:47:00.747Z,70.22
2017-08-04T05:47:41.323Z,70.7
2017-08-04T05:48:21.901Z,70.7
2017-08-04T05:49:02.481Z,71.22
2017-08-04T05:49:43.128Z,70.42
2017-08-04T05:50:23.721Z,71.22
2017-08-04T05:51:04.309Z,70.45
2017-08-04T05:51:44.886Z,68.23
2017-08-04T05:52:25.467Z,68.19
2017-08-04T05:53:06.370Z,68.52
2017-08-04T05:53:46.972Z,68.04
2017-08-04T05:54:27.554Z,68.13
2017-08-04T05:55:08.136Z,69
2017-08-04T05:55:48.741Z,69.29
2017-08-04T05:56:29.322Z,68.81
2017-08-04T05:57:09.891Z,68.33
2017-08-04T05:57:50.485Z,67.55
2017-08-04T05:58:31.165Z,68.23
2017-08-04T05:59:11.718Z,68.04
2017-08-04T05:59:52.340Z,68.81
2017-08-04T06:00:32.944Z,69.29
2017-08-04T06:01:13.522Z,69.1
2017-08-04T06:01:54.089Z,69.87
2017-08-04T06:02:34.709Z,69.68
2017-08-04T06:03:15.284Z,69.78
2017-08-04T06:03:55.867Z,69.68
2017-08-04T06:04:36.446Z,68.91
2017-08-04T06:05:17.053Z,69.2
2017-08-04T06:05:57.811Z,68.52
2017-08-04T06:06:38.416Z,68.62
2017-08-04T06:07:19.001Z,68.13
2017-08-04T06:07:59.594Z,67.27
2017-08-04T06:08:40.167Z,67.4
2017-08-04T06:09:20.773Z,67.78
2017-08-04T06:10:01.431Z,67.11
2017-08-04T06:10:42.041Z,66.53
2017-08-04T06:11:22.609Z,67.01
2017-08-04T06:12:03.197Z,66.91
2017-08-04T06:12:43.782Z,66.72
2017-08-04T06:13:24.376Z,66.72
2017-08-04T06:14:04.989Z,66.53
2017-08-04T06:14:45.582Z,65.75
2017-08-04T06:15:26.226Z,65.85
2017-08-04T06:16:06.802Z,65.59
2017-08-04T06:16:47.381Z,65.3
2017-08-04T06:17:27.960Z,65.69
2017-08-04T06:18:08.536Z,66.56
2017-08-04T06:18:49.403Z,66.63
2017-08-04T06:19:29.998Z,66.14
2017-08-04T06:20:10.562Z,66.33
2017-08-04T06:20:51.148Z,66.63
2017-08-04T06:21:31.720Z,65.56
2017-08-04T06:22:12.328Z,66.24
2017-08-04T06:22:52.932Z,66.82
2017-08-04T06:23:33.545Z,66.43
2017-08-04T06:24:14.145Z,65.75
2017-08-04T06:24:54.742Z,66.53
2017-08-04T06:25:35.349Z,66.33
2017-08-04T06:26:15.936Z,66.82
2017-08-04T06:26:56.526Z,67.2
2017-08-04T06:27:37.121Z,67.49
2017-08-04T06:28:17.712Z,67.4
2017-08-04T06:28:58.426Z,67.14
2017-08-04T06:29:39.042Z,66.85
2017-08-04T06:30:19.618Z,67.14
2017-08-04T06:31:00.274Z,67.14
2017-08-04T06:31:40.969Z,66.46
2017-08-04T06:32:21.678Z,65.69
2017-08-04T06:33:02.335Z,65.88
2017-08-04T06:33:43.182Z,64.82
2017-08-04T06:34:24.012Z,64.95
2017-08-04T06:35:04.721Z,64.95
2017-08-04T06:35:45.557Z,65.14
2017-08-04T06:36:26.188Z,64.37
2017-08-04T06:37:06.865Z,63.82
2017-08-04T06:37:47.492Z,63.73
2017-08-04T06:38:28.318Z,64.01
2017-08-04T06:39:09.118Z,63.05
2017-08-04T06:39:50.019Z,62.69
2017-08-04T06:40:34.775Z,61.72
2017-08-04T06:41:18.101Z,61.72
2017-08-04T06:41:59.167Z,61.53
2017-08-04T06:42:39.704Z,61.85
2017-08-04T06:43:20.279Z,61.18
2017-08-04T06:44:06.227Z,60.11
2017-08-04T06:44:46.992Z,59.33
2017-08-04T06:45:27.680Z,60.21
2017-08-04T06:46:12.154Z,60.59
2017-08-04T06:46:53.484Z,58.75
2017-08-04T06:47:34.548Z,59.75
2017-08-04T06:48:15.178Z,59.43
2017-08-04T06:48:55.763Z,59.07
2017-08-04T06:49:36.405Z,58.98
2017-08-04T06:50:18.387Z,58.49
2017-08-04T06:51:01.268Z,58.01
2017-08-04T06:51:42.943Z,58.39
2017-08-04T06:52:24.877Z,57.88
2017-08-04T06:53:06.050Z,57.5
2017-08-04T06:53:47.045Z,57.88
2017-08-04T06:54:27.971Z,58.56
2017-08-04T06:55:08.671Z,58.75
2017-08-04T06:55:49.643Z,58.85
2017-08-04T06:56:30.251Z,58.92
2017-08-04T06:57:10.835Z,58.85
2017-08-04T06:57:51.491Z,58.92
2017-08-04T06:58:32.974Z,59.5
2017-08-04T06:59:14.749Z,60.11
2017-08-04T06:59:56.460Z,60.08
2017-08-04T07:00:37.595Z,60.08
2017-08-04T07:01:19.612Z,60.37
2017-08-04T07:02:01.573Z,58.92
2017-08-04T07:02:42.222Z,59.4
2017-08-04T07:03:24.499Z,60.17
2017-08-04T07:04:05.532Z,59.98
2017-08-04T07:04:46.742Z,60.08
2017-08-04T07:05:27.571Z,60.72
2017-08-04T07:06:08.450Z,61.43
2017-08-04T07:06:49.802Z,61.4
2017-08-04T07:07:30.779Z,61.21
2017-08-04T07:08:12.005Z,61.6
2017-08-04T07:08:53.500Z,62.08
2017-08-04T07:09:34.790Z,62.18
2017-08-04T07:10:15.632Z,61.92
2017-08-04T07:10:56.728Z,61.15
2017-08-04T07:11:37.706Z,60.85
2017-08-04T07:12:18.668Z,60.11
2017-08-04T07:12:59.867Z,60.5
2017-08-04T07:13:40.817Z,60.98
2017-08-04T07:14:21.480Z,60.88
2017-08-04T07:15:02.555Z,60.91
2017-08-04T07:15:43.269Z,59.94
2017-08-04T07:16:24.137Z,58.98
2017-08-04T07:17:04.868Z,58.39
2017-08-04T07:17:45.690Z,58.88
2017-08-04T07:18:26.399Z,58.3
2017-08-04T07:19:07.278Z,58.14
2017-08-04T07:19:47.966Z,57.43
2017-08-04T07:20:28.729Z,57.84
2017-08-04T07:21:09.420Z,58.04
2017-08-04T07:21:50.024Z,57.75
2017-08-04T07:22:30.742Z,57.65
2017-08-04T07:23:11.487Z,56.49
2017-08-04T07:23:52.275Z,57.26
2017-08-04T07:24:32.925Z,57.55
2017-08-04T07:25:13.517Z,57.07
2017-08-04T07:25:54.207Z,56.59
2017-08-04T07:26:34.859Z,55.9
2017-08-04T07:27:15.456Z,56.39
2017-08-04T07:27:56.051Z,55.74
2017-08-04T07:28:36.680Z,55.9
2017-08-04T07:29:17.313Z,55.54
2017-08-04T07:29:57.914Z,53.8
2017-08-04T07:30:38.495Z,54.09
2017-08-04T07:31:19.163Z,54.09
2017-08-04T07:31:59.907Z,54.16
2017-08-04T07:32:40.685Z,55.22
2017-08-04T07:33:21.411Z,55.9
2017-08-04T07:34:02.058Z,55.22
2017-08-04T07:34:42.800Z,55.42
2017-08-04T07:35:23.482Z,55.32
2017-08-04T07:36:04.508Z,54.94
2017-08-04T07:36:45.161Z,55.13
2017-08-04T07:37:25.910Z,55.52
2017-08-04T07:38:06.508Z,55.42
2017-08-04T07:38:47.079Z,53.39
2017-08-04T07:39:27.716Z,53.09
2017-08-04T07:40:08.390Z,53.49
2017-08-04T07:40:48.994Z,53.02
2017-08-04T07:41:29.558Z,52.93
2017-08-04T07:42:10.171Z,54.48
2017-08-04T07:42:50.802Z,54.19
2017-08-04T07:43:31.383Z,53.8
2017-08-04T07:44:11.968Z,54.11
2017-08-04T07:44:52.598Z,54.02
2017-08-04T07:45:33.192Z,54.11
2017-08-04T07:46:13.853Z,53.27
2017-08-04T07:46:54.473Z,53.85
2017-08-04T07:47:35.168Z,52.69
2017-08-04T07:48:15.757Z,52.56
2017-08-04T07:48:56.367Z,52.95
2017-08-04T07:49:36.947Z,51.89
2017-08-04T07:50:17.540Z,50.7
2017-08-04T07:50:58.167Z,50.99
2017-08-04T07:51:38.751Z,53.12
2017-08-04T07:52:19.393Z,53.31
2017-08-04T07:52:59.997Z,52.73
2017-08-04T07:53:40.595Z,51.96
2017-08-04T07:54:21.213Z,52.64
2017-08-04T07:55:04.499Z,52.44
2017-08-04T07:55:45.070Z,53.7
2017-08-04T07:56:25.686Z,53.12
2017-08-04T07:57:06.337Z,52.83
2017-08-04T07:57:46.960Z,52.54
2017-08-04T07:58:27.560Z,51.79
2017-08-04T07:59:08.282Z,52.56
2017-08-04T07:59:48.888Z,51.89
2017-08-04T08:00:29.481Z,52.66
2017-08-04T08:01:10.077Z,53.73
2017-08-04T08:01:50.679Z,53.73
2017-08-04T08:02:31.265Z,53.53
2017-08-04T08:03:11.881Z,52.95
2017-08-04T08:03:52.593Z,51.01
2017-08-04T08:04:33.267Z,49.97
2017-08-04T08:05:13.903Z,51.59
2017-08-04T08:05:54.582Z,50.94
2017-08-04T08:06:35.203Z,49.97
2017-08-04T08:07:15.808Z,51.91
2017-08-04T08:07:56.403Z,52.11
2017-08-04T08:08:37.231Z,49.99
2017-08-04T08:09:17.853Z,49.99
2017-08-04T08:09:58.511Z,51.75
2017-08-04T08:10:39.264Z,52.03
2017-08-04T08:11:20.004Z,51.45
2017-08-04T08:12:00.584Z,49.9
2017-08-04T08:12:41.491Z,48.75
2017-08-04T08:13:22.221Z,47.98
2017-08-04T08:14:02.944Z,49.24
2017-08-04T08:14:43.573Z,48.47
2017-08-04T08:15:24.219Z,47.66
2017-08-04T08:16:05.129Z,48.27
2017-08-04T08:16:45.931Z,50.12
2017-08-04T08:17:26.517Z,50.02
2017-08-04T08:18:07.289Z,49.63
2017-08-04T08:18:47.877Z,48.75
2017-08-04T08:19:29.072Z,49.44
2017-08-04T08:20:09.680Z,48.95
2017-08-04T08:20:50.381Z,47.3
2017-08-04T08:21:31.129Z,47.01
2017-08-04T08:22:11.885Z,47.01
2017-08-04T08:22:52.579Z,47.4
2017-08-04T08:23:33.387Z,47.4
2017-08-04T08:24:14.062Z,47.3
2017-08-04T08:24:54.677Z,48.75
2017-08-04T08:25:35.317Z,49.27
2017-08-04T08:26:15.982Z,49.46
2017-08-04T08:26:56.632Z,48.3
2017-08-04T08:27:37.272Z,48
2017-08-04T08:28:17.929Z,47.42
2017-08-04T08:28:58.535Z,47.42
2017-08-04T08:29:39.113Z,47.4
2017-08-04T08:30:19.716Z,47.01
2017-08-04T08:31:00.324Z,46.81
2017-08-04T08:31:40.896Z,47.49
2017-08-04T08:32:21.570Z,49.05
2017-08-04T08:33:02.111Z,47.98
2017-08-04T08:33:42.697Z,47.71
2017-08-04T08:34:23.319Z,49.46
2017-08-04T08:35:03.909Z,49.66
2017-08-04T08:35:44.495Z,48.78
2017-08-04T08:36:25.072Z,47.61
2017-08-04T08:37:05.664Z,47.52
2017-08-04T08:37:46.301Z,46.14
2017-08-04T08:38:26.892Z,48.37
2017-08-04T08:39:07.489Z,47.98
2017-08-04T08:39:48.063Z,48.18
2017-08-04T08:40:28.656Z,48.66
2017-08-04T08:41:09.252Z,47.59
2017-08-04T08:41:49.856Z,47.98
2017-08-04T08:42:30.452Z,47.4
2017-08-04T08:43:11.093Z,46.62
2017-08-04T08:43:51.687Z,46.89
2017-08-04T08:44:32.305Z,48.05
2017-08-04T08:45:12.883Z,46.98
2017-08-04T08:45:53.466Z,47.47